LEVC Airport Information

Runway Information
Runway 04 Length 5394 ft width 148 ft
Elevation 205 ft Threshold 0 ft Heading 38
Runway 22 Length 5394 ft Width 148 ft
Elevation 188 ft Threshold 0 ft Heading 218
Runway 12 Length 8858 ft width 148 ft
Elevation 225 ft Threshold 0 ft Heading 116
Runway 30 Length 8858 ft Width 148 ft
Elevation 172 ft Threshold 0 ft Heading 296
Airport Frequencies
Type APP Name APP Frequency 120.1 MHZ
Type ATIS Name ATIS Frequency 121.075 MHZ
Type GND Name GND Frequency 121.7 MHZ
Type TWR Name TWR Frequency 118.55 MHZ
Airport Navaids
Type NDB Name Valencia Frequency 400 KHZ
Type NDB Name Valencia Frequency 340 KHZ
Type NDB Name Sagunto Frequency 356 KHZ
Type VOR-DME Name Valencia Frequency 116100 KHZ
Airport Weather Information & NOTAM
ADDS - METARS form results

(0755 UTC 25 May 2020)
Data provider http://aviationweather.gov/metar/data/
 
METAR text: LEVC 250730Z VRB02KT 9999 FEW040 21/16 Q1026 NOSIG
Conditions at: LEVC (VALENCIA (CIV/MI, ES) observed 0730 UTC 25 May 2020
Temperature: 21.0°C (70°F)
Dewpoint: 16.0°C (61°F) [RH = 73%]
Pressure (altimeter): 30.30 inches Hg (1026.0 mb)
Winds: variable direction winds at 2 MPH (2 knots; 1.0 m/s)
Visibility: 6 or more miles (10+ km)
Ceiling: at least 12,000 feet AGL
Clouds: few clouds at 4000 feet AGL
Weather: no significant weather observed at this time

METAR text: LEVC 250700Z 33004KT 290V010 9999 FEW040 20/16 Q1026 NOSIG
Conditions at: LEVC (VALENCIA (CIV/MI, ES) observed 0700 UTC 25 May 2020
Temperature: 20.0°C (68°F)
Dewpoint: 16.0°C (61°F) [RH = 78%]
Pressure (altimeter): 30.30 inches Hg (1026.0 mb)
Winds: from the NNW (330 degrees) at 5 MPH (4 knots; 2.1 m/s)
Visibility: 6 or more miles (10+ km)
Ceiling: at least 12,000 feet AGL
Clouds: few clouds at 4000 feet AGL
Weather: no significant weather observed at this time

Forecast for: LEVC (VALENCIA (CIV/MI, ES)
Text: TAF LEVC 250500Z 2506/2606 33003KT 9999 FEW040 TX25/2512Z TN15/2506Z
Forecast period: 0600 to 0900 UTC 25 May 2020
Forecast type: FROM: standard forecast or significant change
Winds: from the NNW (330 degrees) at 3 MPH (3 knots; 1.5 m/s)
Visibility: 6 or more miles 10+ km)
Ceiling: at least 12,000 feet AGL
Clouds: few clouds at 4000 feet AGL
Weather: no significant weather forecast for this period
Text: BECMG 2509/2511 09010KT
Forecast period: 0900 UTC 25 May 2020 to 0600 UTC 26 May 2020
Forecast type: BECOMING: Conditions expected to become as follows by 1100 UTC 25 May 2020
Winds: from the E (90 degrees) at 12 MPH (10 knots; 5.1 m/s)
Visibility: 6 or more miles 10+ km)
Ceiling: at least 12,000 feet AGL
Clouds: few clouds at 4000 feet AGL
Weather: no significant weather forecast for this period
Text: PROB30
Forecast period: 1300 to 2000 UTC 25 May 2020
Forecast type: TEMPORARY: The following changes expected for less than half the time period
Visibility: 1.86 miles (2.99 km)
Ceiling: at least 12,000 feet AGL
Clouds: few clouds at 8000 feet AGL
Weather: SHRA  (rain showers)